sensor_id;sensor_type;location;lat;lon;timestamp;P1;durP1;ratioP1;P2;durP2;ratioP2
5831;SDS011;50943;51.448;7.646;2024-02-26T00:00:09;3.90;;;2.40;;
5831;SDS011;50943;51.448;7.646;2024-02-26T00:02:38;3.90;;;1.90;;
5831;SDS011;50943;51.448;7.646;2024-02-26T00:05:05;3.63;;;2.03;;
5831;SDS011;50943;51.448;7.646;2024-02-26T00:07:32;3.80;;;1.87;;
5831;SDS011;50943;51.448;7.646;2024-02-26T00:09:59;3.53;;;2.10;;
5831;SDS011;50943;51.448;7.646;2024-02-26T00:12:25;2.80;;;1.80;;
5831;SDS011;50943;51.448;7.646;2024-02-26T00:14:52;5.40;;;1.70;;
5831;SDS011;50943;51.448;7.646;2024-02-26T00:17:19;5.37;;;1.80;;
5831;SDS011;50943;51.448;7.646;2024-02-26T00:19:46;4.10;;;1.60;;
5831;SDS011;50943;51.448;7.646;2024-02-26T00:22:13;3.40;;;2.00;;
5831;SDS011;50943;51.448;7.646;2024-02-26T00:24:40;2.23;;;1.50;;
5831;SDS011;50943;51.448;7.646;2024-02-26T00:27:06;2.40;;;1.53;;
5831;SDS011;50943;51.448;7.646;2024-02-26T00:29:33;2.33;;;1.67;;
5831;SDS011;50943;51.448;7.646;2024-02-26T00:31:59;4.03;;;1.97;;
5831;SDS011;50943;51.448;7.646;2024-02-26T00:34:26;3.63;;;1.93;;
5831;SDS011;50943;51.448;7.646;2024-02-26T00:36:54;2.87;;;1.70;;
5831;SDS011;50943;51.448;7.646;2024-02-26T00:39:20;1.83;;;1.50;;
5831;SDS011;50943;51.448;7.646;2024-02-26T00:41:47;2.60;;;1.73;;
5831;SDS011;50943;51.448;7.646;2024-02-26T00:44:13;2.50;;;1.77;;
5831;SDS011;50943;51.448;7.646;2024-02-26T00:46:40;3.30;;;1.83;;
5831;SDS011;50943;51.448;7.646;2024-02-26T00:49:06;3.13;;;1.53;;
5831;SDS011;50943;51.448;7.646;2024-02-26T00:51:33;4.30;;;1.93;;
5831;SDS011;50943;51.448;7.646;2024-02-26T00:54:01;2.90;;;1.70;;
5831;SDS011;50943;51.448;7.646;2024-02-26T00:56:28;2.83;;;1.70;;
5831;SDS011;50943;51.448;7.646;2024-02-26T00:58:54;5.77;;;1.40;;
5831;SDS011;50943;51.448;7.646;2024-02-26T01:01:21;4.23;;;2.10;;
5831;SDS011;50943;51.448;7.646;2024-02-26T01:03:47;2.40;;;1.60;;
5831;SDS011;50943;51.448;7.646;2024-02-26T01:06:14;3.67;;;1.40;;
5831;SDS011;50943;51.448;7.646;2024-02-26T01:08:41;3.10;;;1.60;;
5831;SDS011;50943;51.448;7.646;2024-02-26T01:11:09;2.90;;;1.70;;
5831;SDS011;50943;51.448;7.646;2024-02-26T01:13:35;4.90;;;1.60;;
5831;SDS011;50943;51.448;7.646;2024-02-26T01:16:02;2.83;;;2.00;;
5831;SDS011;50943;51.448;7.646;2024-02-26T01:18:29;3.90;;;1.93;;
5831;SDS011;50943;51.448;7.646;2024-02-26T01:20:55;2.57;;;1.73;;
5831;SDS011;50943;51.448;7.646;2024-02-26T01:23:22;3.60;;;1.53;;
5831;SDS011;50943;51.448;7.646;2024-02-26T01:25:49;2.10;;;1.57;;
5831;SDS011;50943;51.448;7.646;2024-02-26T01:28:17;3.20;;;1.60;;
5831;SDS011;50943;51.448;7.646;2024-02-26T01:30:43;4.60;;;1.63;;
5831;SDS011;50943;51.448;7.646;2024-02-26T01:33:10;3.67;;;1.97;;
5831;SDS011;50943;51.448;7.646;2024-02-26T01:35:37;4.13;;;1.90;;
5831;SDS011;50943;51.448;7.646;2024-02-26T01:38:03;3.73;;;1.97;;
5831;SDS011;50943;51.448;7.646;2024-02-26T01:40:30;2.60;;;1.60;;
5831;SDS011;50943;51.448;7.646;2024-02-26T01:42:57;3.67;;;1.73;;
5831;SDS011;50943;51.448;7.646;2024-02-26T01:45:25;3.47;;;1.70;;
5831;SDS011;50943;51.448;7.646;2024-02-26T01:47:52;1.97;;;1.53;;
5831;SDS011;50943;51.448;7.646;2024-02-26T01:50:19;2.87;;;1.77;;
5831;SDS011;50943;51.448;7.646;2024-02-26T01:52:47;2.20;;;1.53;;
5831;SDS011;50943;51.448;7.646;2024-02-26T01:55:15;2.10;;;1.57;;
5831;SDS011;50943;51.448;7.646;2024-02-26T01:57:44;2.10;;;1.43;;
5831;SDS011;50943;51.448;7.646;2024-02-26T02:00:12;2.40;;;1.50;;
5831;SDS011;50943;51.448;7.646;2024-02-26T02:02:40;2.90;;;1.50;;
5831;SDS011;50943;51.448;7.646;2024-02-26T02:05:09;2.37;;;1.70;;
5831;SDS011;50943;51.448;7.646;2024-02-26T02:07:37;4.00;;;1.73;;
5831;SDS011;50943;51.448;7.646;2024-02-26T02:10:04;1.77;;;1.53;;
5831;SDS011;50943;51.448;7.646;2024-02-26T02:12:32;2.87;;;1.90;;
5831;SDS011;50943;51.448;7.646;2024-02-26T02:14:59;3.07;;;1.70;;
5831;SDS011;50943;51.448;7.646;2024-02-26T02:17:26;3.40;;;1.63;;
5831;SDS011;50943;51.448;7.646;2024-02-26T02:19:54;3.37;;;2.13;;
5831;SDS011;50943;51.448;7.646;2024-02-26T02:22:22;3.20;;;1.50;;
5831;SDS011;50943;51.448;7.646;2024-02-26T02:24:48;2.97;;;1.60;;
5831;SDS011;50943;51.448;7.646;2024-02-26T02:27:15;4.60;;;1.77;;
5831;SDS011;50943;51.448;7.646;2024-02-26T02:29:42;2.67;;;1.30;;
5831;SDS011;50943;51.448;7.646;2024-02-26T02:32:09;2.80;;;1.60;;
5831;SDS011;50943;51.448;7.646;2024-02-26T02:34:35;3.90;;;1.70;;
5831;SDS011;50943;51.448;7.646;2024-02-26T02:37:02;3.17;;;1.60;;
5831;SDS011;50943;51.448;7.646;2024-02-26T02:39:30;2.67;;;1.47;;
5831;SDS011;50943;51.448;7.646;2024-02-26T02:41:56;2.07;;;1.50;;
5831;SDS011;50943;51.448;7.646;2024-02-26T02:44:23;3.30;;;1.60;;
5831;SDS011;50943;51.448;7.646;2024-02-26T02:46:50;4.07;;;2.10;;
5831;SDS011;50943;51.448;7.646;2024-02-26T02:49:18;3.33;;;1.80;;
5831;SDS011;50943;51.448;7.646;2024-02-26T02:51:44;6.03;;;1.70;;
5831;SDS011;50943;51.448;7.646;2024-02-26T02:54:11;2.40;;;1.57;;
5831;SDS011;50943;51.448;7.646;2024-02-26T02:56:39;3.50;;;2.10;;
5831;SDS011;50943;51.448;7.646;2024-02-26T02:59:06;3.63;;;2.00;;
5831;SDS011;50943;51.448;7.646;2024-02-26T03:01:32;3.13;;;1.97;;
5831;SDS011;50943;51.448;7.646;2024-02-26T03:03:59;2.60;;;2.00;;
5831;SDS011;50943;51.448;7.646;2024-02-26T03:06:25;3.00;;;1.87;;
5831;SDS011;50943;51.448;7.646;2024-02-26T03:08:53;4.07;;;1.90;;
5831;SDS011;50943;51.448;7.646;2024-02-26T03:11:20;3.93;;;1.90;;
5831;SDS011;50943;51.448;7.646;2024-02-26T03:13:48;3.40;;;2.17;;
5831;SDS011;50943;51.448;7.646;2024-02-26T03:16:15;2.43;;;1.57;;
5831;SDS011;50943;51.448;7.646;2024-02-26T03:18:43;4.30;;;1.73;;
5831;SDS011;50943;51.448;7.646;2024-02-26T03:21:09;2.77;;;1.90;;
5831;SDS011;50943;51.448;7.646;2024-02-26T03:23:36;3.20;;;2.07;;
5831;SDS011;50943;51.448;7.646;2024-02-26T03:26:03;3.27;;;1.90;;
5831;SDS011;50943;51.448;7.646;2024-02-26T03:28:29;5.00;;;2.20;;
5831;SDS011;50943;51.448;7.646;2024-02-26T03:30:59;4.07;;;2.40;;
5831;SDS011;50943;51.448;7.646;2024-02-26T03:33:27;3.67;;;2.17;;
5831;SDS011;50943;51.448;7.646;2024-02-26T03:35:53;4.50;;;2.30;;
5831;SDS011;50943;51.448;7.646;2024-02-26T03:38:20;3.30;;;2.07;;
5831;SDS011;50943;51.448;7.646;2024-02-26T03:40:46;3.90;;;2.10;;
5831;SDS011;50943;51.448;7.646;2024-02-26T03:43:13;3.07;;;2.20;;
5831;SDS011;50943;51.448;7.646;2024-02-26T03:45:40;8.33;;;2.77;;
5831;SDS011;50943;51.448;7.646;2024-02-26T03:48:08;3.00;;;2.00;;
5831;SDS011;50943;51.448;7.646;2024-02-26T03:50:34;3.50;;;2.10;;
5831;SDS011;50943;51.448;7.646;2024-02-26T03:53:01;4.37;;;1.93;;
5831;SDS011;50943;51.448;7.646;2024-02-26T03:55:28;4.10;;;2.40;;
5831;SDS011;50943;51.448;7.646;2024-02-26T03:57:54;2.87;;;2.03;;
5831;SDS011;50943;51.448;7.646;2024-02-26T04:00:21;3.53;;;2.33;;
5831;SDS011;50943;51.448;7.646;2024-02-26T04:02:48;2.70;;;1.93;;
5831;SDS011;50943;51.448;7.646;2024-02-26T04:05:16;5.70;;;2.07;;
5831;SDS011;50943;51.448;7.646;2024-02-26T04:07:42;4.03;;;2.20;;
5831;SDS011;50943;51.448;7.646;2024-02-26T04:10:09;2.40;;;1.73;;
5831;SDS011;50943;51.448;7.646;2024-02-26T04:12:37;3.20;;;1.90;;
5831;SDS011;50943;51.448;7.646;2024-02-26T04:15:05;3.73;;;2.37;;
5831;SDS011;50943;51.448;7.646;2024-02-26T04:17:32;3.80;;;2.50;;
5831;SDS011;50943;51.448;7.646;2024-02-26T04:19:59;3.47;;;2.30;;
5831;SDS011;50943;51.448;7.646;2024-02-26T04:22:26;2.97;;;1.90;;
5831;SDS011;50943;51.448;7.646;2024-02-26T04:24:53;3.00;;;2.10;;
5831;SDS011;50943;51.448;7.646;2024-02-26T04:27:19;3.40;;;1.93;;
5831;SDS011;50943;51.448;7.646;2024-02-26T04:29:46;4.57;;;2.30;;
5831;SDS011;50943;51.448;7.646;2024-02-26T04:32:12;6.87;;;2.13;;
5831;SDS011;50943;51.448;7.646;2024-02-26T04:34:39;6.60;;;1.97;;
5831;SDS011;50943;51.448;7.646;2024-02-26T04:37:07;2.20;;;1.67;;
5831;SDS011;50943;51.448;7.646;2024-02-26T04:39:35;2.90;;;1.70;;
5831;SDS011;50943;51.448;7.646;2024-02-26T04:42:01;5.23;;;2.00;;
5831;SDS011;50943;51.448;7.646;2024-02-26T04:44:28;3.50;;;2.30;;
5831;SDS011;50943;51.448;7.646;2024-02-26T04:46:55;5.60;;;1.90;;
5831;SDS011;50943;51.448;7.646;2024-02-26T04:49:22;3.03;;;1.90;;
5831;SDS011;50943;51.448;7.646;2024-02-26T04:51:48;2.57;;;2.00;;
5831;SDS011;50943;51.448;7.646;2024-02-26T04:54:15;2.87;;;2.10;;
5831;SDS011;50943;51.448;7.646;2024-02-26T04:56:43;4.23;;;2.57;;
5831;SDS011;50943;51.448;7.646;2024-02-26T04:59:10;3.87;;;2.20;;
5831;SDS011;50943;51.448;7.646;2024-02-26T05:01:36;6.93;;;2.23;;
5831;SDS011;50943;51.448;7.646;2024-02-26T05:04:04;4.67;;;2.47;;
5831;SDS011;50943;51.448;7.646;2024-02-26T05:06:30;5.47;;;2.40;;
5831;SDS011;50943;51.448;7.646;2024-02-26T05:08:57;3.87;;;2.50;;
5831;SDS011;50943;51.448;7.646;2024-02-26T05:11:24;4.40;;;2.00;;
5831;SDS011;50943;51.448;7.646;2024-02-26T05:13:52;4.10;;;2.17;;
5831;SDS011;50943;51.448;7.646;2024-02-26T05:16:19;3.30;;;2.20;;
5831;SDS011;50943;51.448;7.646;2024-02-26T05:18:47;2.67;;;2.00;;
5831;SDS011;50943;51.448;7.646;2024-02-26T05:21:13;4.00;;;2.80;;
5831;SDS011;50943;51.448;7.646;2024-02-26T05:23:40;7.07;;;2.07;;
5831;SDS011;50943;51.448;7.646;2024-02-26T05:26:08;4.97;;;2.17;;
5831;SDS011;50943;51.448;7.646;2024-02-26T05:28:35;3.20;;;2.13;;
5831;SDS011;50943;51.448;7.646;2024-02-26T05:31:05;6.03;;;2.57;;
5831;SDS011;50943;51.448;7.646;2024-02-26T05:33:32;3.23;;;1.90;;
5831;SDS011;50943;51.448;7.646;2024-02-26T05:35:58;3.90;;;2.37;;
5831;SDS011;50943;51.448;7.646;2024-02-26T05:38:29;2.87;;;1.83;;
5831;SDS011;50943;51.448;7.646;2024-02-26T05:40:56;4.07;;;2.20;;
5831;SDS011;50943;51.448;7.646;2024-02-26T05:43:23;5.87;;;2.30;;
5831;SDS011;50943;51.448;7.646;2024-02-26T05:45:50;4.73;;;2.20;;
5831;SDS011;50943;51.448;7.646;2024-02-26T05:48:18;4.70;;;2.80;;
5831;SDS011;50943;51.448;7.646;2024-02-26T05:50:45;9.20;;;3.10;;
5831;SDS011;50943;51.448;7.646;2024-02-26T05:53:11;6.57;;;2.60;;
5831;SDS011;50943;51.448;7.646;2024-02-26T05:55:38;7.37;;;2.60;;
5831;SDS011;50943;51.448;7.646;2024-02-26T05:58:05;7.60;;;2.60;;
5831;SDS011;50943;51.448;7.646;2024-02-26T06:00:31;3.63;;;2.50;;
5831;SDS011;50943;51.448;7.646;2024-02-26T06:02:57;4.23;;;2.50;;
5831;SDS011;50943;51.448;7.646;2024-02-26T06:05:28;3.40;;;1.90;;
5831;SDS011;50943;51.448;7.646;2024-02-26T06:07:55;4.40;;;2.20;;
5831;SDS011;50943;51.448;7.646;2024-02-26T06:10:21;6.40;;;2.23;;
5831;SDS011;50943;51.448;7.646;2024-02-26T06:12:48;3.37;;;2.33;;
5831;SDS011;50943;51.448;7.646;2024-02-26T06:15:14;4.87;;;2.60;;
5831;SDS011;50943;51.448;7.646;2024-02-26T06:17:40;3.83;;;2.10;;
5831;SDS011;50943;51.448;7.646;2024-02-26T06:20:07;3.33;;;2.20;;
5831;SDS011;50943;51.448;7.646;2024-02-26T06:22:39;3.43;;;2.13;;
5831;SDS011;50943;51.448;7.646;2024-02-26T06:25:06;5.97;;;2.90;;
5831;SDS011;50943;51.448;7.646;2024-02-26T06:27:33;3.50;;;1.90;;
5831;SDS011;50943;51.448;7.646;2024-02-26T06:30:00;3.00;;;2.23;;
5831;SDS011;50943;51.448;7.646;2024-02-26T06:32:26;2.70;;;1.93;;
5831;SDS011;50943;51.448;7.646;2024-02-26T06:34:54;2.70;;;2.03;;
5831;SDS011;50943;51.448;7.646;2024-02-26T06:37:20;3.00;;;2.00;;
5831;SDS011;50943;51.448;7.646;2024-02-26T06:39:48;3.50;;;2.10;;
5831;SDS011;50943;51.448;7.646;2024-02-26T06:42:17;3.10;;;2.10;;
5831;SDS011;50943;51.448;7.646;2024-02-26T06:44:43;3.13;;;2.00;;
5831;SDS011;50943;51.448;7.646;2024-02-26T06:47:10;4.60;;;2.60;;
5831;SDS011;50943;51.448;7.646;2024-02-26T06:49:36;3.50;;;2.37;;
5831;SDS011;50943;51.448;7.646;2024-02-26T06:52:04;3.30;;;2.17;;
5831;SDS011;50943;51.448;7.646;2024-02-26T06:54:31;4.67;;;2.43;;
5831;SDS011;50943;51.448;7.646;2024-02-26T06:56:59;5.13;;;2.40;;
5831;SDS011;50943;51.448;7.646;2024-02-26T06:59:25;4.90;;;2.10;;
5831;SDS011;50943;51.448;7.646;2024-02-26T07:01:52;5.37;;;2.30;;
5831;SDS011;50943;51.448;7.646;2024-02-26T07:04:19;4.33;;;2.50;;
5831;SDS011;50943;51.448;7.646;2024-02-26T07:06:46;3.77;;;2.40;;
5831;SDS011;50943;51.448;7.646;2024-02-26T07:09:13;7.83;;;2.47;;
5831;SDS011;50943;51.448;7.646;2024-02-26T07:11:39;4.63;;;2.37;;
5831;SDS011;50943;51.448;7.646;2024-02-26T07:14:09;5.23;;;3.00;;
5831;SDS011;50943;51.448;7.646;2024-02-26T07:16:35;3.83;;;2.73;;
5831;SDS011;50943;51.448;7.646;2024-02-26T07:19:02;7.07;;;3.30;;
5831;SDS011;50943;51.448;7.646;2024-02-26T07:21:29;4.27;;;2.60;;
5831;SDS011;50943;51.448;7.646;2024-02-26T07:23:56;5.10;;;2.60;;
5831;SDS011;50943;51.448;7.646;2024-02-26T07:26:23;3.70;;;2.57;;
5831;SDS011;50943;51.448;7.646;2024-02-26T07:28:51;4.60;;;2.90;;
5831;SDS011;50943;51.448;7.646;2024-02-26T07:31:18;4.83;;;2.73;;
5831;SDS011;50943;51.448;7.646;2024-02-26T07:33:45;5.93;;;2.70;;
5831;SDS011;50943;51.448;7.646;2024-02-26T07:36:11;3.70;;;2.60;;
5831;SDS011;50943;51.448;7.646;2024-02-26T07:38:38;5.00;;;2.90;;
5831;SDS011;50943;51.448;7.646;2024-02-26T07:41:04;5.57;;;2.73;;
5831;SDS011;50943;51.448;7.646;2024-02-26T07:43:31;6.33;;;3.00;;
5831;SDS011;50943;51.448;7.646;2024-02-26T07:45:57;4.83;;;2.97;;
5831;SDS011;50943;51.448;7.646;2024-02-26T07:48:25;4.83;;;2.80;;
5831;SDS011;50943;51.448;7.646;2024-02-26T07:50:52;5.20;;;2.87;;
5831;SDS011;50943;51.448;7.646;2024-02-26T07:53:18;5.73;;;3.57;;
5831;SDS011;50943;51.448;7.646;2024-02-26T07:55:45;4.00;;;2.77;;
5831;SDS011;50943;51.448;7.646;2024-02-26T07:58:12;5.53;;;3.00;;
5831;SDS011;50943;51.448;7.646;2024-02-26T08:00:38;3.60;;;3.07;;
5831;SDS011;50943;51.448;7.646;2024-02-26T08:03:05;4.20;;;2.93;;
5831;SDS011;50943;51.448;7.646;2024-02-26T08:05:33;4.00;;;2.50;;
5831;SDS011;50943;51.448;7.646;2024-02-26T08:07:59;5.83;;;3.40;;
5831;SDS011;50943;51.448;7.646;2024-02-26T08:10:26;6.93;;;2.73;;
5831;SDS011;50943;51.448;7.646;2024-02-26T08:12:52;5.20;;;3.23;;
5831;SDS011;50943;51.448;7.646;2024-02-26T08:15:19;6.03;;;3.50;;
5831;SDS011;50943;51.448;7.646;2024-02-26T08:17:46;5.40;;;2.93;;
5831;SDS011;50943;51.448;7.646;2024-02-26T08:20:13;6.00;;;3.13;;
5831;SDS011;50943;51.448;7.646;2024-02-26T08:22:41;11.80;;;5.33;;
5831;SDS011;50943;51.448;7.646;2024-02-26T08:25:08;4.60;;;2.90;;
5831;SDS011;50943;51.448;7.646;2024-02-26T08:27:35;14.10;;;6.13;;
5831;SDS011;50943;51.448;7.646;2024-02-26T08:30:02;29.33;;;10.47;;
5831;SDS011;50943;51.448;7.646;2024-02-26T08:32:29;8.17;;;3.20;;
5831;SDS011;50943;51.448;7.646;2024-02-26T08:34:55;18.90;;;8.77;;
5831;SDS011;50943;51.448;7.646;2024-02-26T08:37:22;14.77;;;6.00;;
5831;SDS011;50943;51.448;7.646;2024-02-26T08:39:50;9.03;;;4.10;;
5831;SDS011;50943;51.448;7.646;2024-02-26T08:42:16;8.83;;;5.30;;
5831;SDS011;50943;51.448;7.646;2024-02-26T08:44:43;12.43;;;5.67;;
5831;SDS011;50943;51.448;7.646;2024-02-26T08:47:09;17.73;;;8.87;;
5831;SDS011;50943;51.448;7.646;2024-02-26T08:49:36;9.90;;;5.60;;
5831;SDS011;50943;51.448;7.646;2024-02-26T08:52:04;10.00;;;4.20;;
5831;SDS011;50943;51.448;7.646;2024-02-26T08:54:31;4.83;;;3.70;;
5831;SDS011;50943;51.448;7.646;2024-02-26T08:56:59;8.43;;;4.73;;
5831;SDS011;50943;51.448;7.646;2024-02-26T08:59:24;7.03;;;3.70;;
5831;SDS011;50943;51.448;7.646;2024-02-26T09:01:51;9.67;;;5.23;;
5831;SDS011;50943;51.448;7.646;2024-02-26T09:04:17;5.30;;;3.60;;
5831;SDS011;50943;51.448;7.646;2024-02-26T09:06:44;7.13;;;3.90;;
5831;SDS011;50943;51.448;7.646;2024-02-26T09:09:11;6.57;;;4.33;;
5831;SDS011;50943;51.448;7.646;2024-02-26T09:11:37;12.07;;;5.70;;
5831;SDS011;50943;51.448;7.646;2024-02-26T09:14:05;7.17;;;4.67;;
5831;SDS011;50943;51.448;7.646;2024-02-26T09:16:32;11.20;;;5.23;;
5831;SDS011;50943;51.448;7.646;2024-02-26T09:18:58;7.80;;;4.57;;
5831;SDS011;50943;51.448;7.646;2024-02-26T09:21:24;8.03;;;4.47;;
5831;SDS011;50943;51.448;7.646;2024-02-26T09:23:52;9.07;;;5.07;;
5831;SDS011;50943;51.448;7.646;2024-02-26T09:26:18;7.60;;;4.30;;
5831;SDS011;50943;51.448;7.646;2024-02-26T09:28:45;6.67;;;4.40;;
5831;SDS011;50943;51.448;7.646;2024-02-26T09:31:14;5.83;;;3.90;;
5831;SDS011;50943;51.448;7.646;2024-02-26T09:33:42;5.83;;;3.53;;
5831;SDS011;50943;51.448;7.646;2024-02-26T09:36:08;4.57;;;3.87;;
5831;SDS011;50943;51.448;7.646;2024-02-26T09:38:36;5.07;;;3.13;;
5831;SDS011;50943;51.448;7.646;2024-02-26T09:41:03;10.90;;;4.43;;
5831;SDS011;50943;51.448;7.646;2024-02-26T09:43:32;8.10;;;4.00;;
5831;SDS011;50943;51.448;7.646;2024-02-26T09:46:01;5.90;;;3.80;;
5831;SDS011;50943;51.448;7.646;2024-02-26T09:48:29;7.03;;;4.10;;
5831;SDS011;50943;51.448;7.646;2024-02-26T09:50:55;6.57;;;4.07;;
5831;SDS011;50943;51.448;7.646;2024-02-26T09:53:22;8.10;;;4.50;;
5831;SDS011;50943;51.448;7.646;2024-02-26T09:55:48;6.67;;;3.80;;
5831;SDS011;50943;51.448;7.646;2024-02-26T09:58:15;7.17;;;4.70;;
5831;SDS011;50943;51.448;7.646;2024-02-26T10:00:45;7.17;;;4.50;;
5831;SDS011;50943;51.448;7.646;2024-02-26T10:03:13;7.83;;;4.13;;
5831;SDS011;50943;51.448;7.646;2024-02-26T10:05:42;7.23;;;4.43;;
5831;SDS011;50943;51.448;7.646;2024-02-26T10:08:09;10.90;;;4.43;;
5831;SDS011;50943;51.448;7.646;2024-02-26T10:10:37;8.00;;;4.50;;
5831;SDS011;50943;51.448;7.646;2024-02-26T10:13:04;8.27;;;4.70;;
5831;SDS011;50943;51.448;7.646;2024-02-26T10:15:35;7.60;;;5.23;;
5831;SDS011;50943;51.448;7.646;2024-02-26T10:18:03;6.77;;;4.90;;
5831;SDS011;50943;51.448;7.646;2024-02-26T10:20:30;8.43;;;4.60;;
5831;SDS011;50943;51.448;7.646;2024-02-26T10:22:58;9.83;;;5.20;;
5831;SDS011;50943;51.448;7.646;2024-02-26T10:25:24;8.77;;;5.00;;
5831;SDS011;50943;51.448;7.646;2024-02-26T10:27:51;9.00;;;5.20;;
5831;SDS011;50943;51.448;7.646;2024-02-26T10:30:19;10.33;;;5.70;;
5831;SDS011;50943;51.448;7.646;2024-02-26T10:32:46;14.70;;;5.87;;
5831;SDS011;50943;51.448;7.646;2024-02-26T10:35:13;9.30;;;5.40;;
5831;SDS011;50943;51.448;7.646;2024-02-26T10:37:40;13.47;;;6.03;;
5831;SDS011;50943;51.448;7.646;2024-02-26T10:40:11;13.53;;;6.90;;
5831;SDS011;50943;51.448;7.646;2024-02-26T10:42:37;18.20;;;6.83;;
5831;SDS011;50943;51.448;7.646;2024-02-26T10:45:04;11.93;;;5.73;;
5831;SDS011;50943;51.448;7.646;2024-02-26T10:47:31;16.60;;;7.20;;
5831;SDS011;50943;51.448;7.646;2024-02-26T10:49:59;16.03;;;7.27;;
5831;SDS011;50943;51.448;7.646;2024-02-26T10:52:25;17.80;;;7.30;;
5831;SDS011;50943;51.448;7.646;2024-02-26T10:54:53;14.40;;;7.70;;
5831;SDS011;50943;51.448;7.646;2024-02-26T10:57:21;17.33;;;7.57;;
5831;SDS011;50943;51.448;7.646;2024-02-26T10:59:48;16.30;;;8.30;;
5831;SDS011;50943;51.448;7.646;2024-02-26T11:02:16;17.70;;;9.07;;
5831;SDS011;50943;51.448;7.646;2024-02-26T11:04:43;21.10;;;8.73;;
5831;SDS011;50943;51.448;7.646;2024-02-26T11:07:10;16.80;;;7.93;;
5831;SDS011;50943;51.448;7.646;2024-02-26T11:09:37;19.00;;;8.17;;
5831;SDS011;50943;51.448;7.646;2024-02-26T11:12:08;18.50;;;8.60;;
5831;SDS011;50943;51.448;7.646;2024-02-26T11:14:40;16.20;;;8.87;;
5831;SDS011;50943;51.448;7.646;2024-02-26T11:17:07;22.07;;;9.40;;
5831;SDS011;50943;51.448;7.646;2024-02-26T11:19:35;22.13;;;9.70;;
5831;SDS011;50943;51.448;7.646;2024-02-26T11:22:02;21.40;;;9.57;;
5831;SDS011;50943;51.448;7.646;2024-02-26T11:24:28;18.30;;;8.53;;
5831;SDS011;50943;51.448;7.646;2024-02-26T11:26:55;23.67;;;9.50;;
5831;SDS011;50943;51.448;7.646;2024-02-26T11:29:25;15.43;;;7.93;;
5831;SDS011;50943;51.448;7.646;2024-02-26T11:31:55;15.77;;;8.73;;
5831;SDS011;50943;51.448;7.646;2024-02-26T11:34:21;12.70;;;7.50;;
5831;SDS011;50943;51.448;7.646;2024-02-26T11:36:48;14.00;;;7.17;;
5831;SDS011;50943;51.448;7.646;2024-02-26T11:39:15;13.73;;;7.23;;
5831;SDS011;50943;51.448;7.646;2024-02-26T11:41:42;12.97;;;6.47;;
5831;SDS011;50943;51.448;7.646;2024-02-26T11:44:08;9.67;;;6.07;;
5831;SDS011;50943;51.448;7.646;2024-02-26T11:46:38;9.57;;;5.37;;
5831;SDS011;50943;51.448;7.646;2024-02-26T11:51:58;13.10;;;6.27;;
5831;SDS011;50943;51.448;7.646;2024-02-26T11:54:38;10.47;;;5.47;;
5831;SDS011;50943;51.448;7.646;2024-02-26T11:57:19;10.57;;;5.70;;
5831;SDS011;50943;51.448;7.646;2024-02-26T11:59:46;9.60;;;5.20;;
5831;SDS011;50943;51.448;7.646;2024-02-26T12:05:06;7.40;;;4.57;;
5831;SDS011;50943;51.448;7.646;2024-02-26T12:07:34;8.77;;;4.70;;
5831;SDS011;50943;51.448;7.646;2024-02-26T12:10:14;7.00;;;4.57;;
5831;SDS011;50943;51.448;7.646;2024-02-26T12:12:41;6.23;;;4.03;;
5831;SDS011;50943;51.448;7.646;2024-02-26T12:15:08;6.97;;;4.57;;
5831;SDS011;50943;51.448;7.646;2024-02-26T12:17:36;6.57;;;4.33;;
5831;SDS011;50943;51.448;7.646;2024-02-26T12:20:10;8.20;;;4.30;;
5831;SDS011;50943;51.448;7.646;2024-02-26T12:22:38;5.80;;;3.70;;
5831;SDS011;50943;51.448;7.646;2024-02-26T12:25:06;6.97;;;4.40;;
5831;SDS011;50943;51.448;7.646;2024-02-26T12:27:35;9.87;;;5.73;;
5831;SDS011;50943;51.448;7.646;2024-02-26T12:30:01;8.27;;;4.87;;
5831;SDS011;50943;51.448;7.646;2024-02-26T12:32:29;10.03;;;5.80;;
5831;SDS011;50943;51.448;7.646;2024-02-26T12:34:56;6.47;;;4.60;;
5831;SDS011;50943;51.448;7.646;2024-02-26T12:37:24;9.60;;;5.10;;
5831;SDS011;50943;51.448;7.646;2024-02-26T12:39:50;9.90;;;5.43;;
5831;SDS011;50943;51.448;7.646;2024-02-26T12:42:17;7.57;;;4.93;;
5831;SDS011;50943;51.448;7.646;2024-02-26T12:44:44;10.53;;;5.73;;
5831;SDS011;50943;51.448;7.646;2024-02-26T12:47:11;8.20;;;4.80;;
5831;SDS011;50943;51.448;7.646;2024-02-26T12:49:41;9.73;;;5.50;;
5831;SDS011;50943;51.448;7.646;2024-02-26T12:52:08;8.80;;;5.57;;
5831;SDS011;50943;51.448;7.646;2024-02-26T12:54:37;9.03;;;5.50;;
5831;SDS011;50943;51.448;7.646;2024-02-26T12:57:04;11.67;;;6.70;;
5831;SDS011;50943;51.448;7.646;2024-02-26T12:59:31;10.80;;;5.90;;
5831;SDS011;50943;51.448;7.646;2024-02-26T13:01:58;9.30;;;6.07;;
5831;SDS011;50943;51.448;7.646;2024-02-26T13:04:25;11.30;;;5.60;;
5831;SDS011;50943;51.448;7.646;2024-02-26T13:06:52;11.77;;;7.03;;
5831;SDS011;50943;51.448;7.646;2024-02-26T13:09:19;10.73;;;6.70;;
5831;SDS011;50943;51.448;7.646;2024-02-26T13:11:49;10.73;;;6.20;;
5831;SDS011;50943;51.448;7.646;2024-02-26T13:14:19;15.20;;;7.30;;
5831;SDS011;50943;51.448;7.646;2024-02-26T13:16:54;13.37;;;6.97;;
5831;SDS011;50943;51.448;7.646;2024-02-26T13:19:21;11.70;;;6.70;;
5831;SDS011;50943;51.448;7.646;2024-02-26T13:21:47;16.43;;;6.50;;
5831;SDS011;50943;51.448;7.646;2024-02-26T13:24:14;13.77;;;6.90;;
5831;SDS011;50943;51.448;7.646;2024-02-26T13:26:40;12.00;;;7.07;;
5831;SDS011;50943;51.448;7.646;2024-02-26T13:29:08;10.33;;;5.47;;
5831;SDS011;50943;51.448;7.646;2024-02-26T13:31:38;13.23;;;6.83;;
5831;SDS011;50943;51.448;7.646;2024-02-26T13:34:05;13.80;;;6.60;;
5831;SDS011;50943;51.448;7.646;2024-02-26T13:36:32;10.40;;;6.07;;
5831;SDS011;50943;51.448;7.646;2024-02-26T13:38:58;10.50;;;6.07;;
5831;SDS011;50943;51.448;7.646;2024-02-26T13:41:26;12.10;;;7.03;;
5831;SDS011;50943;51.448;7.646;2024-02-26T13:43:52;8.70;;;5.43;;
5831;SDS011;50943;51.448;7.646;2024-02-26T13:46:20;9.27;;;5.53;;
5831;SDS011;50943;51.448;7.646;2024-02-26T13:48:47;9.80;;;5.40;;
5831;SDS011;50943;51.448;7.646;2024-02-26T13:51:14;13.50;;;6.30;;
5831;SDS011;50943;51.448;7.646;2024-02-26T13:53:42;10.67;;;6.10;;
5831;SDS011;50943;51.448;7.646;2024-02-26T13:56:08;9.60;;;5.87;;
5831;SDS011;50943;51.448;7.646;2024-02-26T13:58:36;13.83;;;5.50;;
5831;SDS011;50943;51.448;7.646;2024-02-26T14:01:02;11.70;;;6.43;;
5831;SDS011;50943;51.448;7.646;2024-02-26T14:03:32;10.33;;;6.30;;
5831;SDS011;50943;51.448;7.646;2024-02-26T14:05:58;8.73;;;5.50;;
5831;SDS011;50943;51.448;7.646;2024-02-26T14:08:25;9.10;;;5.33;;
5831;SDS011;50943;51.448;7.646;2024-02-26T14:10:51;11.80;;;5.53;;
5831;SDS011;50943;51.448;7.646;2024-02-26T14:13:18;9.80;;;5.87;;
5831;SDS011;50943;51.448;7.646;2024-02-26T14:15:44;10.63;;;6.00;;
5831;SDS011;50943;51.448;7.646;2024-02-26T14:18:11;10.50;;;6.33;;
5831;SDS011;50943;51.448;7.646;2024-02-26T14:20:39;12.60;;;5.73;;
5831;SDS011;50943;51.448;7.646;2024-02-26T14:23:05;8.90;;;5.37;;
5831;SDS011;50943;51.448;7.646;2024-02-26T14:25:33;11.70;;;6.40;;
5831;SDS011;50943;51.448;7.646;2024-02-26T14:27:59;14.77;;;7.70;;
5831;SDS011;50943;51.448;7.646;2024-02-26T14:30:26;18.20;;;9.67;;
5831;SDS011;50943;51.448;7.646;2024-02-26T14:32:53;14.97;;;9.30;;
5831;SDS011;50943;51.448;7.646;2024-02-26T14:35:19;18.87;;;10.40;;
5831;SDS011;50943;51.448;7.646;2024-02-26T14:37:47;12.80;;;8.20;;
5831;SDS011;50943;51.448;7.646;2024-02-26T14:40:15;13.40;;;8.23;;
5831;SDS011;50943;51.448;7.646;2024-02-26T14:42:42;14.90;;;7.37;;
5831;SDS011;50943;51.448;7.646;2024-02-26T14:45:08;12.80;;;6.90;;
5831;SDS011;50943;51.448;7.646;2024-02-26T14:47:36;13.03;;;6.17;;
5831;SDS011;50943;51.448;7.646;2024-02-26T14:50:03;11.93;;;6.47;;
5831;SDS011;50943;51.448;7.646;2024-02-26T14:52:30;10.10;;;6.13;;
5831;SDS011;50943;51.448;7.646;2024-02-26T14:54:58;14.20;;;5.97;;
5831;SDS011;50943;51.448;7.646;2024-02-26T14:57:24;11.17;;;6.10;;
5831;SDS011;50943;51.448;7.646;2024-02-26T14:59:51;12.03;;;6.47;;
5831;SDS011;50943;51.448;7.646;2024-02-26T15:02:18;8.67;;;5.00;;